WAT5398 KFLL-KHOU
Flight info
| Callsign | WAT5398 |
|---|---|
| Flight time | 2h 22m |
| Altitude | 36000 |
| Route | BNICE2 DOLIE Y280 LEV PUCKS4 |
| Aircraft | B38M/M-SDE1FGHILORVWXY/HB1 |
Departure
| Time | 2026-05-06 18:50 |
|---|---|
| Airport | Fort Lauderdale Hollywood International Airport (KFLL) |
Arrival
| Time | 2026-05-06 21:13 |
|---|---|
| Airport | William P. Hobby Airport (KHOU) |
| Time | Latitude | Longitude | Altitude | Speed | Heading |
|---|---|---|---|---|---|
| 2026-05-06 18:07 | 26.07051 | -80.14668 | 30 ft | 0 kts | 17° |
| 2026-05-06 18:30 | 26.07051 | -80.14669 | 30 ft | 0 kts | 17° |
| 2026-05-06 18:30 | 26.07051 | -80.14668 | 30 ft | 0 kts | 17° |
| 2026-05-06 18:30 | 26.07051 | -80.14669 | 30 ft | 0 kts | 17° |
| 2026-05-06 18:40 | 26.07040 | -80.14672 | 30 ft | 4 kts | 17° |
| 2026-05-06 18:40 | 26.07019 | -80.14679 | 31 ft | 4 kts | 11° |
| 2026-05-06 18:41 | 26.06998 | -80.14677 | 32 ft | 4 kts | 306° |
| 2026-05-06 18:41 | 26.06994 | -80.14652 | 33 ft | 4 kts | 270° |
| 2026-05-06 18:41 | 26.06994 | -80.14630 | 33 ft | 0 kts | 271° |
| 2026-05-06 18:45 | 26.06994 | -80.14632 | 33 ft | 1 kts | 270° |
| 2026-05-06 18:45 | 26.06994 | -80.14661 | 33 ft | 9 kts | 269° |
| 2026-05-06 18:46 | 26.06958 | -80.14750 | 34 ft | 15 kts | 227° |
| 2026-05-06 18:46 | 26.06911 | -80.14847 | 35 ft | 15 kts | 269° |
| 2026-05-06 18:46 | 26.06912 | -80.14967 | 35 ft | 16 kts | 270° |
| 2026-05-06 18:46 | 26.06912 | -80.15082 | 35 ft | 10 kts | 269° |
| 2026-05-06 18:47 | 26.06868 | -80.15129 | 36 ft | 10 kts | 184° |
| 2026-05-06 18:47 | 26.06799 | -80.15132 | 37 ft | 10 kts | 186° |
| 2026-05-06 18:47 | 26.06770 | -80.15188 | 38 ft | 10 kts | 271° |
| 2026-05-06 18:47 | 26.06770 | -80.15301 | 38 ft | 21 kts | 270° |
| 2026-05-06 18:48 | 26.06772 | -80.15489 | 32 ft | 18 kts | 269° |
| 2026-05-06 18:48 | 26.06718 | -80.15537 | 31 ft | 11 kts | 208° |
| 2026-05-06 18:48 | 26.06699 | -80.15624 | 28 ft | 14 kts | 268° |
| 2026-05-06 18:48 | 26.06699 | -80.15748 | 27 ft | 18 kts | 270° |
| 2026-05-06 18:49 | 26.06664 | -80.15821 | 22 ft | 11 kts | 191° |
| 2026-05-06 18:49 | 26.06593 | -80.15803 | 21 ft | 7 kts | 119° |
| 2026-05-06 18:49 | 26.06590 | -80.15751 | 23 ft | 13 kts | 91° |
| 2026-05-06 18:49 | 26.06588 | -80.15371 | 34 ft | 85 kts | 90° |
| 2026-05-06 18:50 | 26.06584 | -80.14476 | 49 ft | 145 kts | 90° |
| 2026-05-06 18:50 | 26.06582 | -80.13233 | 377 ft | 168 kts | 87° |
| 2026-05-06 18:50 | 26.06748 | -80.11916 | 1038 ft | 179 kts | 83° |
| 2026-05-06 18:50 | 26.06908 | -80.10499 | 1777 ft | 194 kts | 78° |
| 2026-05-06 18:51 | 26.07537 | -80.09053 | 2152 ft | 224 kts | 53° |
| 2026-05-06 18:51 | 26.08537 | -80.07633 | 2692 ft | 242 kts | 47° |
| 2026-05-06 18:51 | 26.09990 | -80.06627 | 3331 ft | 257 kts | 17° |
| 2026-05-06 18:51 | 26.11746 | -80.06029 | 3972 ft | 271 kts | 20° |
| 2026-05-06 18:52 | 26.13527 | -80.05321 | 4913 ft | 273 kts | 20° |
| 2026-05-06 18:52 | 26.15387 | -80.04871 | 5743 ft | 277 kts | 357° |
| 2026-05-06 18:52 | 26.17245 | -80.05345 | 6670 ft | 277 kts | 340° |
| 2026-05-06 18:52 | 26.19078 | -80.06044 | 7468 ft | 280 kts | 342° |
| 2026-05-06 18:53 | 26.20912 | -80.06775 | 8348 ft | 281 kts | 334° |
| 2026-05-06 18:53 | 26.22424 | -80.08133 | 9181 ft | 284 kts | 308° |
| 2026-05-06 18:53 | 26.23335 | -80.10105 | 9967 ft | 290 kts | 292° |
| 2026-05-06 18:53 | 26.24091 | -80.12200 | 10511 ft | 304 kts | 294° |
| 2026-05-06 18:54 | 26.24926 | -80.14476 | 10819 ft | 324 kts | 294° |
| 2026-05-06 18:54 | 26.25624 | -80.16944 | 11130 ft | 344 kts | 281° |
| 2026-05-06 18:54 | 26.25986 | -80.19619 | 11577 ft | 355 kts | 281° |
| 2026-05-06 18:54 | 26.26373 | -80.22342 | 12278 ft | 357 kts | 282° |
| 2026-05-06 18:55 | 26.26766 | -80.25091 | 12915 ft | 362 kts | 282° |
| 2026-05-06 18:55 | 26.27158 | -80.27839 | 13578 ft | 365 kts | 282° |
| 2026-05-06 18:55 | 26.27558 | -80.30652 | 14197 ft | 369 kts | 282° |
| 2026-05-06 18:55 | 26.27961 | -80.33491 | 14806 ft | 371 kts | 283° |
| 2026-05-06 18:56 | 26.28366 | -80.36338 | 15428 ft | 373 kts | 282° |
| 2026-05-06 18:56 | 26.28770 | -80.39195 | 16030 ft | 375 kts | 282° |
| 2026-05-06 18:56 | 26.29178 | -80.42070 | 16621 ft | 377 kts | 282° |
| 2026-05-06 18:56 | 26.29587 | -80.44968 | 17196 ft | 379 kts | 282° |
| 2026-05-06 18:57 | 26.29997 | -80.47868 | 17760 ft | 380 kts | 282° |
| 2026-05-06 18:57 | 26.30410 | -80.50792 | 18306 ft | 382 kts | 282° |
| 2026-05-06 18:57 | 26.30823 | -80.53729 | 18772 ft | 384 kts | 282° |
| 2026-05-06 18:57 | 26.31237 | -80.56675 | 19229 ft | 386 kts | 282° |
| 2026-05-06 18:58 | 26.31654 | -80.59640 | 19672 ft | 388 kts | 282° |
| 2026-05-06 18:58 | 26.32071 | -80.62617 | 20124 ft | 389 kts | 282° |
| 2026-05-06 18:58 | 26.32488 | -80.65600 | 20570 ft | 391 kts | 282° |
| 2026-05-06 18:58 | 26.32909 | -80.68609 | 21006 ft | 393 kts | 282° |
| 2026-05-06 18:59 | 26.33329 | -80.71622 | 21443 ft | 395 kts | 282° |
| 2026-05-06 18:59 | 26.33752 | -80.74654 | 21871 ft | 396 kts | 282° |
| 2026-05-06 18:59 | 26.34174 | -80.77695 | 22298 ft | 398 kts | 282° |
| 2026-05-06 18:59 | 26.34598 | -80.80748 | 22707 ft | 400 kts | 282° |
| 2026-05-06 19:00 | 26.35025 | -80.83821 | 23129 ft | 402 kts | 282° |
| 2026-05-06 19:00 | 26.35452 | -80.86906 | 23531 ft | 403 kts | 282° |
| 2026-05-06 19:00 | 26.35947 | -80.89988 | 23876 ft | 403 kts | 289° |
| 2026-05-06 19:00 | 26.37084 | -80.92812 | 24199 ft | 400 kts | 305° |
| 2026-05-06 19:01 | 26.38883 | -80.95173 | 24494 ft | 401 kts | 315° |
| 2026-05-06 19:01 | 26.40864 | -80.97381 | 24788 ft | 404 kts | 315° |
| 2026-05-06 19:01 | 26.42882 | -80.99577 | 25114 ft | 405 kts | 316° |
| 2026-05-06 19:01 | 26.44919 | -81.01758 | 25444 ft | 407 kts | 316° |
| 2026-05-06 19:02 | 26.46976 | -81.03939 | 25761 ft | 409 kts | 316° |
| 2026-05-06 19:02 | 26.49050 | -81.06128 | 26081 ft | 411 kts | 316° |
| 2026-05-06 19:02 | 26.51134 | -81.08322 | 26384 ft | 413 kts | 316° |
| 2026-05-06 19:02 | 26.53229 | -81.10530 | 26693 ft | 415 kts | 316° |
| 2026-05-06 19:03 | 26.55335 | -81.12749 | 27004 ft | 417 kts | 316° |
| 2026-05-06 19:03 | 26.57448 | -81.14978 | 27309 ft | 419 kts | 316° |
| 2026-05-06 19:03 | 26.59569 | -81.17216 | 27623 ft | 420 kts | 316° |
| 2026-05-06 19:03 | 26.61697 | -81.19461 | 27925 ft | 422 kts | 316° |
| 2026-05-06 19:04 | 26.63835 | -81.21725 | 28220 ft | 424 kts | 315° |
| 2026-05-06 19:04 | 26.65981 | -81.24005 | 28508 ft | 426 kts | 315° |
| 2026-05-06 19:04 | 26.68136 | -81.26294 | 28790 ft | 428 kts | 315° |
| 2026-05-06 19:04 | 26.70297 | -81.28591 | 29055 ft | 430 kts | 315° |
| 2026-05-06 19:05 | 26.72467 | -81.30898 | 29350 ft | 432 kts | 315° |
| 2026-05-06 19:05 | 26.74619 | -81.33188 | 29645 ft | 433 kts | 315° |
| 2026-05-06 19:05 | 26.76836 | -81.35549 | 29903 ft | 435 kts | 315° |
| 2026-05-06 19:05 | 26.79000 | -81.37855 | 30160 ft | 437 kts | 315° |
| 2026-05-06 19:06 | 26.81207 | -81.40207 | 30379 ft | 439 kts | 315° |
| 2026-05-06 19:06 | 26.83444 | -81.42593 | 30639 ft | 439 kts | 315° |
| 2026-05-06 19:06 | 26.85627 | -81.44922 | 30945 ft | 439 kts | 315° |
| 2026-05-06 19:06 | 26.87835 | -81.47279 | 31259 ft | 438 kts | 314° |
| 2026-05-06 19:07 | 26.90034 | -81.49629 | 31597 ft | 436 kts | 314° |
| 2026-05-06 19:07 | 26.92226 | -81.51972 | 31972 ft | 434 kts | 314° |
| 2026-05-06 19:07 | 26.94408 | -81.54305 | 32335 ft | 433 kts | 314° |
| 2026-05-06 19:07 | 26.96582 | -81.56632 | 32696 ft | 431 kts | 314° |
| 2026-05-06 19:08 | 26.98751 | -81.58954 | 33055 ft | 430 kts | 314° |
| 2026-05-06 19:08 | 27.00906 | -81.61262 | 33408 ft | 428 kts | 314° |
| 2026-05-06 19:08 | 27.03058 | -81.63570 | 33751 ft | 427 kts | 314° |
| 2026-05-06 19:08 | 27.05202 | -81.65869 | 34098 ft | 426 kts | 314° |
| 2026-05-06 19:09 | 27.07341 | -81.68164 | 34394 ft | 425 kts | 314° |
| 2026-05-06 19:09 | 27.09475 | -81.70455 | 34671 ft | 424 kts | 314° |
| 2026-05-06 19:09 | 27.11603 | -81.72740 | 34951 ft | 423 kts | 314° |
| 2026-05-06 19:09 | 27.13725 | -81.75022 | 35222 ft | 422 kts | 314° |
| 2026-05-06 19:10 | 27.15845 | -81.77302 | 35493 ft | 421 kts | 313° |
| 2026-05-06 19:10 | 27.17954 | -81.79571 | 35770 ft | 420 kts | 313° |
| 2026-05-06 19:10 | 27.20065 | -81.81844 | 36006 ft | 420 kts | 313° |
| 2026-05-06 19:11 | 27.24272 | -81.86377 | 36069 ft | 417 kts | 313° |
| 2026-05-06 19:11 | 27.28018 | -81.91251 | 36058 ft | 410 kts | 294° |
| 2026-05-06 19:12 | 27.29633 | -81.97398 | 36068 ft | 412 kts | 284° |
| 2026-05-06 19:12 | 27.30913 | -82.03676 | 36074 ft | 412 kts | 283° |
| 2026-05-06 19:13 | 27.32109 | -82.09939 | 36076 ft | 412 kts | 283° |
| 2026-05-06 19:13 | 27.33288 | -82.16243 | 36075 ft | 412 kts | 282° |
| 2026-05-06 19:14 | 27.34464 | -82.22562 | 36075 ft | 412 kts | 282° |
| 2026-05-06 19:14 | 27.35635 | -82.28868 | 36082 ft | 412 kts | 282° |
| 2026-05-06 19:15 | 27.36803 | -82.35179 | 36082 ft | 412 kts | 282° |
| 2026-05-06 19:15 | 27.37968 | -82.41491 | 36083 ft | 412 kts | 282° |
| 2026-05-06 19:16 | 27.39131 | -82.47809 | 36084 ft | 412 kts | 282° |
| 2026-05-06 19:16 | 27.40290 | -82.54116 | 36082 ft | 412 kts | 282° |
| 2026-05-06 19:17 | 27.41468 | -82.60422 | 36080 ft | 412 kts | 282° |
| 2026-05-06 19:17 | 27.42647 | -82.66730 | 36083 ft | 412 kts | 282° |
| 2026-05-06 19:18 | 27.43821 | -82.73033 | 36083 ft | 412 kts | 282° |
| 2026-05-06 19:18 | 27.44993 | -82.79337 | 36083 ft | 412 kts | 282° |
| 2026-05-06 19:19 | 27.46162 | -82.85646 | 36083 ft | 411 kts | 282° |
| 2026-05-06 19:19 | 27.47328 | -82.91955 | 36079 ft | 411 kts | 282° |
| 2026-05-06 19:20 | 27.48491 | -82.98262 | 36079 ft | 411 kts | 282° |
| 2026-05-06 19:20 | 27.49652 | -83.04574 | 36079 ft | 411 kts | 282° |
| 2026-05-06 19:21 | 27.50809 | -83.10882 | 36075 ft | 411 kts | 282° |
| 2026-05-06 19:21 | 27.51965 | -83.17196 | 36076 ft | 411 kts | 282° |
| 2026-05-06 19:22 | 27.52922 | -83.22440 | 36074 ft | 411 kts | 282° |
| 2026-05-06 19:22 | 27.54071 | -83.28752 | 36072 ft | 411 kts | 282° |
| 2026-05-06 19:23 | 27.55217 | -83.35062 | 36068 ft | 411 kts | 282° |
| 2026-05-06 19:23 | 27.56361 | -83.41382 | 36070 ft | 411 kts | 282° |
| 2026-05-06 19:24 | 27.57502 | -83.47699 | 36074 ft | 411 kts | 282° |
| 2026-05-06 19:24 | 27.58640 | -83.54014 | 36074 ft | 411 kts | 282° |
| 2026-05-06 19:25 | 27.59773 | -83.60325 | 36072 ft | 411 kts | 282° |
| 2026-05-06 19:25 | 27.60907 | -83.66651 | 36072 ft | 411 kts | 282° |
| 2026-05-06 19:26 | 27.62036 | -83.72973 | 36070 ft | 411 kts | 281° |
| 2026-05-06 19:26 | 27.63163 | -83.79297 | 36069 ft | 411 kts | 281° |
| 2026-05-06 19:27 | 27.64288 | -83.85628 | 36070 ft | 411 kts | 281° |
| 2026-05-06 19:27 | 27.65409 | -83.91953 | 36069 ft | 411 kts | 281° |
| 2026-05-06 19:28 | 27.66527 | -83.98281 | 36070 ft | 411 kts | 281° |
| 2026-05-06 19:28 | 27.67642 | -84.04608 | 36069 ft | 411 kts | 281° |
| 2026-05-06 19:29 | 27.68747 | -84.10898 | 36069 ft | 411 kts | 281° |
| 2026-05-06 19:29 | 27.69857 | -84.17230 | 36070 ft | 411 kts | 281° |
| 2026-05-06 19:30 | 27.70963 | -84.23564 | 36072 ft | 411 kts | 281° |
| 2026-05-06 19:30 | 27.72066 | -84.29894 | 36070 ft | 411 kts | 281° |
| 2026-05-06 19:31 | 27.73168 | -84.36234 | 36068 ft | 411 kts | 281° |
| 2026-05-06 19:31 | 27.74814 | -84.45740 | 36070 ft | 411 kts | 281° |
| 2026-05-06 19:32 | 27.75908 | -84.52080 | 36070 ft | 411 kts | 281° |
| 2026-05-06 19:32 | 27.76999 | -84.58422 | 36067 ft | 411 kts | 281° |
| 2026-05-06 19:33 | 27.78087 | -84.64764 | 36067 ft | 412 kts | 281° |
| 2026-05-06 19:33 | 27.79173 | -84.71112 | 36068 ft | 412 kts | 281° |
| 2026-05-06 19:34 | 27.80257 | -84.77458 | 36067 ft | 412 kts | 281° |
| 2026-05-06 19:34 | 27.81336 | -84.83804 | 36063 ft | 412 kts | 281° |
| 2026-05-06 19:35 | 27.82414 | -84.90161 | 36065 ft | 412 kts | 281° |
| 2026-05-06 19:35 | 27.83489 | -84.96513 | 36065 ft | 412 kts | 281° |
| 2026-05-06 19:36 | 27.84562 | -85.02868 | 36064 ft | 412 kts | 281° |
| 2026-05-06 19:36 | 27.85633 | -85.09230 | 36066 ft | 412 kts | 281° |
| 2026-05-06 19:37 | 27.86700 | -85.15591 | 36064 ft | 412 kts | 280° |
| 2026-05-06 19:37 | 27.87766 | -85.21958 | 36066 ft | 412 kts | 280° |
| 2026-05-06 19:38 | 27.89158 | -85.28191 | 36068 ft | 413 kts | 288° |
| 2026-05-06 19:38 | 27.91006 | -85.34342 | 36064 ft | 414 kts | 288° |
| 2026-05-06 19:39 | 27.92864 | -85.40492 | 36063 ft | 414 kts | 288° |
| 2026-05-06 19:39 | 27.94724 | -85.46648 | 36062 ft | 414 kts | 288° |
| 2026-05-06 19:40 | 27.96583 | -85.52808 | 36064 ft | 413 kts | 288° |
| 2026-05-06 19:40 | 27.98437 | -85.58965 | 36062 ft | 413 kts | 287° |
| 2026-05-06 19:41 | 28.00286 | -85.65115 | 36063 ft | 413 kts | 287° |
| 2026-05-06 19:41 | 28.02132 | -85.71264 | 36060 ft | 413 kts | 287° |
| 2026-05-06 19:42 | 28.03974 | -85.77415 | 36063 ft | 413 kts | 287° |
| 2026-05-06 19:42 | 28.05814 | -85.83568 | 36061 ft | 412 kts | 287° |
| 2026-05-06 19:43 | 28.07650 | -85.89722 | 36061 ft | 412 kts | 287° |
| 2026-05-06 19:43 | 28.09484 | -85.95878 | 36058 ft | 412 kts | 287° |
| 2026-05-06 19:44 | 28.11313 | -86.02027 | 36058 ft | 412 kts | 287° |
| 2026-05-06 19:44 | 28.13138 | -86.08177 | 36053 ft | 412 kts | 287° |
| 2026-05-06 19:45 | 28.14961 | -86.14332 | 36056 ft | 412 kts | 287° |
| 2026-05-06 19:45 | 28.16781 | -86.20484 | 36053 ft | 412 kts | 287° |
| 2026-05-06 19:46 | 28.18585 | -86.26595 | 36053 ft | 411 kts | 287° |
| 2026-05-06 19:46 | 28.20397 | -86.32747 | 36051 ft | 411 kts | 287° |
| 2026-05-06 19:47 | 28.22206 | -86.38898 | 36056 ft | 411 kts | 287° |
| 2026-05-06 19:47 | 28.24010 | -86.45044 | 36053 ft | 411 kts | 287° |
| 2026-05-06 19:48 | 28.25810 | -86.51188 | 36052 ft | 411 kts | 287° |
| 2026-05-06 19:48 | 28.27608 | -86.57335 | 36050 ft | 410 kts | 287° |
| 2026-05-06 19:49 | 28.29402 | -86.63476 | 36051 ft | 410 kts | 287° |
| 2026-05-06 19:49 | 28.31194 | -86.69621 | 36049 ft | 410 kts | 287° |
| 2026-05-06 19:50 | 28.32991 | -86.75752 | 36045 ft | 409 kts | 287° |
| 2026-05-06 19:50 | 28.34788 | -86.81888 | 36044 ft | 409 kts | 287° |
| 2026-05-06 19:51 | 28.36578 | -86.88012 | 36046 ft | 409 kts | 287° |
| 2026-05-06 19:51 | 28.38353 | -86.94098 | 36042 ft | 408 kts | 287° |
| 2026-05-06 19:52 | 28.40136 | -87.00219 | 36036 ft | 408 kts | 287° |
| 2026-05-06 19:52 | 28.41914 | -87.06338 | 36031 ft | 408 kts | 287° |
| 2026-05-06 19:53 | 28.43689 | -87.12456 | 36037 ft | 408 kts | 286° |
| 2026-05-06 19:53 | 28.45462 | -87.18578 | 36034 ft | 408 kts | 286° |
| 2026-05-06 19:54 | 28.47231 | -87.24699 | 36040 ft | 407 kts | 286° |
| 2026-05-06 19:54 | 28.48995 | -87.30816 | 36043 ft | 407 kts | 286° |
| 2026-05-06 19:55 | 28.50757 | -87.36935 | 36029 ft | 407 kts | 286° |
| 2026-05-06 19:55 | 28.52516 | -87.43055 | 36029 ft | 407 kts | 286° |
| 2026-05-06 19:56 | 28.54271 | -87.49173 | 36030 ft | 407 kts | 286° |
| 2026-05-06 19:56 | 28.56023 | -87.55293 | 36028 ft | 407 kts | 286° |
| 2026-05-06 19:57 | 28.57772 | -87.61415 | 36020 ft | 407 kts | 286° |
| 2026-05-06 19:57 | 28.59519 | -87.67539 | 36021 ft | 407 kts | 286° |
| 2026-05-06 19:58 | 28.61263 | -87.73666 | 36019 ft | 407 kts | 286° |
| 2026-05-06 19:58 | 28.63005 | -87.79798 | 36015 ft | 407 kts | 286° |
| 2026-05-06 19:59 | 28.64745 | -87.85931 | 36017 ft | 407 kts | 286° |
| 2026-05-06 19:59 | 28.66482 | -87.92068 | 36022 ft | 407 kts | 285° |
| 2026-05-06 20:00 | 28.68215 | -87.98200 | 36013 ft | 407 kts | 285° |
| 2026-05-06 20:00 | 28.69946 | -88.04337 | 36014 ft | 407 kts | 285° |
| 2026-05-06 20:01 | 28.71673 | -88.10478 | 36014 ft | 407 kts | 285° |
| 2026-05-06 20:01 | 28.73395 | -88.16613 | 36011 ft | 407 kts | 285° |
| 2026-05-06 20:02 | 28.75116 | -88.22753 | 36013 ft | 407 kts | 285° |
| 2026-05-06 20:02 | 28.76834 | -88.28894 | 36008 ft | 407 kts | 285° |
| 2026-05-06 20:03 | 28.78549 | -88.35038 | 36006 ft | 407 kts | 285° |
| 2026-05-06 20:03 | 28.80262 | -88.41183 | 36008 ft | 407 kts | 285° |
| 2026-05-06 20:04 | 28.81972 | -88.47330 | 36007 ft | 407 kts | 285° |
| 2026-05-06 20:04 | 28.83677 | -88.53475 | 36000 ft | 407 kts | 285° |
| 2026-05-06 20:05 | 28.85381 | -88.59624 | 36001 ft | 406 kts | 285° |
| 2026-05-06 20:05 | 28.87080 | -88.65769 | 36007 ft | 406 kts | 285° |
| 2026-05-06 20:06 | 28.88608 | -88.71917 | 36006 ft | 404 kts | 281° |
| 2026-05-06 20:06 | 28.89917 | -88.78166 | 35996 ft | 405 kts | 281° |
| 2026-05-06 20:07 | 28.91250 | -88.84413 | 35997 ft | 405 kts | 281° |
| 2026-05-06 20:07 | 28.92582 | -88.90655 | 35999 ft | 405 kts | 281° |
| 2026-05-06 20:08 | 28.93913 | -88.96904 | 35992 ft | 405 kts | 281° |
| 2026-05-06 20:08 | 28.95024 | -89.02135 | 35995 ft | 405 kts | 281° |
| 2026-05-06 20:09 | 28.96349 | -89.08384 | 35994 ft | 405 kts | 281° |
| 2026-05-06 20:09 | 28.97663 | -89.14595 | 35989 ft | 405 kts | 281° |
| 2026-05-06 20:10 | 28.98982 | -89.20843 | 35988 ft | 405 kts | 281° |
| 2026-05-06 20:10 | 29.00298 | -89.27098 | 35986 ft | 405 kts | 281° |
| 2026-05-06 20:11 | 29.01610 | -89.33348 | 35984 ft | 405 kts | 281° |
| 2026-05-06 20:11 | 29.02920 | -89.39600 | 35983 ft | 404 kts | 281° |
| 2026-05-06 20:12 | 29.04226 | -89.45852 | 35982 ft | 404 kts | 281° |
| 2026-05-06 20:12 | 29.05528 | -89.52101 | 35980 ft | 404 kts | 281° |
| 2026-05-06 20:13 | 29.06828 | -89.58352 | 35976 ft | 404 kts | 281° |
| 2026-05-06 20:13 | 29.08126 | -89.64609 | 35979 ft | 404 kts | 281° |
| 2026-05-06 20:14 | 29.09419 | -89.70859 | 35975 ft | 404 kts | 281° |
| 2026-05-06 20:14 | 29.10708 | -89.77107 | 35977 ft | 404 kts | 281° |
| 2026-05-06 20:15 | 29.11994 | -89.83354 | 35975 ft | 404 kts | 280° |
| 2026-05-06 20:15 | 29.13276 | -89.89598 | 35973 ft | 403 kts | 280° |
| 2026-05-06 20:16 | 29.14555 | -89.95843 | 35972 ft | 403 kts | 280° |
| 2026-05-06 20:16 | 29.15831 | -90.02082 | 35972 ft | 403 kts | 280° |
| 2026-05-06 20:17 | 29.17103 | -90.08321 | 35975 ft | 402 kts | 280° |
| 2026-05-06 20:17 | 29.17646 | -90.14628 | 35977 ft | 399 kts | 271° |
| 2026-05-06 20:18 | 29.17910 | -90.20973 | 35978 ft | 399 kts | 271° |
| 2026-05-06 20:18 | 29.18146 | -90.27313 | 35979 ft | 399 kts | 271° |
| 2026-05-06 20:19 | 29.18374 | -90.33651 | 35976 ft | 399 kts | 271° |
| 2026-05-06 20:19 | 29.18599 | -90.39988 | 35975 ft | 398 kts | 271° |
| 2026-05-06 20:20 | 29.18820 | -90.46278 | 35969 ft | 398 kts | 271° |
| 2026-05-06 20:20 | 29.19040 | -90.52643 | 35960 ft | 398 kts | 271° |
| 2026-05-06 20:21 | 29.19256 | -90.58974 | 35954 ft | 398 kts | 271° |
| 2026-05-06 20:21 | 29.19468 | -90.65300 | 35954 ft | 398 kts | 271° |
| 2026-05-06 20:22 | 29.19678 | -90.71625 | 35954 ft | 398 kts | 270° |
| 2026-05-06 20:22 | 29.19884 | -90.77943 | 35952 ft | 397 kts | 270° |
| 2026-05-06 20:23 | 29.20088 | -90.84265 | 35950 ft | 397 kts | 270° |
| 2026-05-06 20:23 | 29.20287 | -90.90536 | 35949 ft | 397 kts | 270° |
| 2026-05-06 20:24 | 29.20485 | -90.96852 | 35948 ft | 397 kts | 270° |
| 2026-05-06 20:24 | 29.20679 | -91.03163 | 35951 ft | 397 kts | 270° |
| 2026-05-06 20:25 | 29.20870 | -91.09469 | 35951 ft | 397 kts | 270° |
| 2026-05-06 20:25 | 29.21059 | -91.15779 | 35948 ft | 397 kts | 270° |
| 2026-05-06 20:26 | 29.21244 | -91.22084 | 35944 ft | 396 kts | 270° |
| 2026-05-06 20:26 | 29.21426 | -91.28386 | 35942 ft | 396 kts | 270° |
| 2026-05-06 20:27 | 29.21606 | -91.34687 | 35943 ft | 396 kts | 270° |
| 2026-05-06 20:27 | 29.21782 | -91.40994 | 35940 ft | 396 kts | 270° |
| 2026-05-06 20:28 | 29.21955 | -91.47294 | 35934 ft | 396 kts | 270° |
| 2026-05-06 20:28 | 29.22126 | -91.53600 | 35937 ft | 396 kts | 270° |
| 2026-05-06 20:29 | 29.22293 | -91.59905 | 35935 ft | 396 kts | 270° |
| 2026-05-06 20:29 | 29.22458 | -91.66208 | 35930 ft | 396 kts | 270° |
| 2026-05-06 20:30 | 29.22699 | -91.75655 | 35929 ft | 396 kts | 270° |
| 2026-05-06 20:31 | 29.22856 | -91.81957 | 35925 ft | 396 kts | 270° |
| 2026-05-06 20:31 | 29.23011 | -91.88260 | 35922 ft | 396 kts | 270° |
| 2026-05-06 20:32 | 29.23162 | -91.94562 | 35921 ft | 396 kts | 270° |
| 2026-05-06 20:32 | 29.23310 | -92.00862 | 35917 ft | 396 kts | 269° |
| 2026-05-06 20:33 | 29.23454 | -92.07121 | 35915 ft | 396 kts | 269° |
| 2026-05-06 20:33 | 29.23596 | -92.13422 | 35915 ft | 396 kts | 269° |
| 2026-05-06 20:34 | 29.23736 | -92.19725 | 35912 ft | 396 kts | 269° |
| 2026-05-06 20:34 | 29.23873 | -92.26028 | 35910 ft | 396 kts | 269° |
| 2026-05-06 20:35 | 29.24008 | -92.32334 | 35912 ft | 396 kts | 269° |
| 2026-05-06 20:35 | 29.24139 | -92.38636 | 35908 ft | 396 kts | 269° |
| 2026-05-06 20:36 | 29.24269 | -92.44940 | 35909 ft | 396 kts | 269° |
| 2026-05-06 20:36 | 29.24724 | -92.51237 | 35907 ft | 397 kts | 272° |
| 2026-05-06 20:37 | 29.25210 | -92.57536 | 35906 ft | 397 kts | 272° |
| 2026-05-06 20:37 | 29.25684 | -92.63836 | 35904 ft | 397 kts | 272° |
| 2026-05-06 20:38 | 29.26154 | -92.70135 | 35905 ft | 397 kts | 272° |
| 2026-05-06 20:38 | 29.26621 | -92.76436 | 35903 ft | 397 kts | 272° |
| 2026-05-06 20:39 | 29.27084 | -92.82735 | 35906 ft | 397 kts | 272° |
| 2026-05-06 20:39 | 29.27545 | -92.89029 | 35905 ft | 396 kts | 272° |
| 2026-05-06 20:40 | 29.28002 | -92.95320 | 35904 ft | 396 kts | 272° |
| 2026-05-06 20:40 | 29.28464 | -93.01609 | 35905 ft | 396 kts | 272° |
| 2026-05-06 20:41 | 29.28957 | -93.07896 | 35903 ft | 396 kts | 272° |
| 2026-05-06 20:41 | 29.29444 | -93.14183 | 35901 ft | 396 kts | 272° |
| 2026-05-06 20:42 | 29.29929 | -93.20467 | 35903 ft | 396 kts | 272° |
| 2026-05-06 20:42 | 29.30410 | -93.26756 | 35901 ft | 396 kts | 272° |
| 2026-05-06 20:43 | 29.30888 | -93.33040 | 35902 ft | 396 kts | 272° |
| 2026-05-06 20:43 | 29.31364 | -93.39325 | 35900 ft | 396 kts | 272° |
| 2026-05-06 20:44 | 29.31834 | -93.45585 | 35517 ft | 391 kts | 272° |
| 2026-05-06 20:44 | 29.32066 | -93.48684 | 34892 ft | 390 kts | 272° |
| 2026-05-06 20:44 | 29.32297 | -93.51773 | 34284 ft | 389 kts | 272° |
| 2026-05-06 20:44 | 29.32527 | -93.54867 | 33634 ft | 389 kts | 272° |
| 2026-05-06 20:45 | 29.32755 | -93.57958 | 32935 ft | 389 kts | 272° |
| 2026-05-06 20:45 | 29.32982 | -93.61044 | 32285 ft | 388 kts | 272° |
| 2026-05-06 20:45 | 29.33209 | -93.64120 | 31648 ft | 386 kts | 271° |
| 2026-05-06 20:45 | 29.33436 | -93.67217 | 30973 ft | 394 kts | 271° |
| 2026-05-06 20:46 | 29.33666 | -93.70365 | 30363 ft | 399 kts | 271° |
| 2026-05-06 20:46 | 29.33898 | -93.73546 | 29898 ft | 403 kts | 271° |
| 2026-05-06 20:46 | 29.34132 | -93.76759 | 29328 ft | 404 kts | 271° |
| 2026-05-06 20:46 | 29.34364 | -93.79964 | 28790 ft | 402 kts | 271° |
| 2026-05-06 20:47 | 29.34595 | -93.83151 | 28269 ft | 400 kts | 271° |
| 2026-05-06 20:47 | 29.34820 | -93.86274 | 27750 ft | 397 kts | 271° |
| 2026-05-06 20:47 | 29.35020 | -93.89418 | 27167 ft | 393 kts | 270° |
| 2026-05-06 20:47 | 29.35187 | -93.92528 | 26645 ft | 388 kts | 270° |
| 2026-05-06 20:48 | 29.35359 | -93.95638 | 26151 ft | 384 kts | 270° |
| 2026-05-06 20:48 | 29.35525 | -93.98633 | 25666 ft | 380 kts | 270° |
| 2026-05-06 20:48 | 29.35691 | -94.01638 | 25171 ft | 377 kts | 270° |
| 2026-05-06 20:48 | 29.35856 | -94.04627 | 24681 ft | 374 kts | 270° |
| 2026-05-06 20:49 | 29.36019 | -94.07586 | 24195 ft | 371 kts | 269° |
| 2026-05-06 20:49 | 29.36180 | -94.10534 | 23708 ft | 369 kts | 269° |
| 2026-05-06 20:49 | 29.36339 | -94.13461 | 23173 ft | 367 kts | 269° |
| 2026-05-06 20:49 | 29.36498 | -94.16381 | 22638 ft | 365 kts | 269° |
| 2026-05-06 20:50 | 29.36654 | -94.19271 | 22151 ft | 362 kts | 269° |
| 2026-05-06 20:50 | 29.36809 | -94.22132 | 21680 ft | 358 kts | 269° |
| 2026-05-06 20:50 | 29.36978 | -94.24975 | 21181 ft | 357 kts | 270° |
| 2026-05-06 20:50 | 29.37160 | -94.27815 | 20701 ft | 359 kts | 270° |
| 2026-05-06 20:51 | 29.37340 | -94.30663 | 20490 ft | 354 kts | 270° |
| 2026-05-06 20:51 | 29.37514 | -94.33432 | 20319 ft | 343 kts | 269° |
| 2026-05-06 20:51 | 29.37683 | -94.36126 | 20129 ft | 335 kts | 269° |
| 2026-05-06 20:51 | 29.37945 | -94.38786 | 19571 ft | 339 kts | 272° |
| 2026-05-06 20:52 | 29.38137 | -94.40570 | 19219 ft | 340 kts | 272° |
| 2026-05-06 20:52 | 29.38421 | -94.43266 | 18731 ft | 341 kts | 272° |
| 2026-05-06 20:52 | 29.38698 | -94.45927 | 18537 ft | 333 kts | 271° |
| 2026-05-06 20:52 | 29.38966 | -94.48534 | 18326 ft | 326 kts | 271° |
| 2026-05-06 20:53 | 29.39228 | -94.51089 | 18115 ft | 318 kts | 271° |
| 2026-05-06 20:53 | 29.39483 | -94.53574 | 17946 ft | 310 kts | 271° |
| 2026-05-06 20:53 | 29.39729 | -94.55990 | 17800 ft | 300 kts | 271° |
| 2026-05-06 20:53 | 29.39968 | -94.58334 | 17658 ft | 291 kts | 271° |
| 2026-05-06 20:54 | 29.40199 | -94.60601 | 17502 ft | 283 kts | 270° |
| 2026-05-06 20:54 | 29.40425 | -94.62832 | 17156 ft | 281 kts | 270° |
| 2026-05-06 20:54 | 29.40653 | -94.65053 | 16792 ft | 280 kts | 271° |
| 2026-05-06 20:54 | 29.41176 | -94.67228 | 16427 ft | 288 kts | 285° |
| 2026-05-06 20:55 | 29.41946 | -94.69350 | 16036 ft | 288 kts | 285° |
| 2026-05-06 20:55 | 29.42709 | -94.71469 | 15681 ft | 288 kts | 285° |
| 2026-05-06 20:55 | 29.43480 | -94.73587 | 15338 ft | 287 kts | 285° |
| 2026-05-06 20:55 | 29.44253 | -94.75696 | 14995 ft | 287 kts | 285° |
| 2026-05-06 20:56 | 29.45026 | -94.77803 | 14653 ft | 286 kts | 285° |
| 2026-05-06 20:56 | 29.45798 | -94.79903 | 14308 ft | 286 kts | 286° |
| 2026-05-06 20:56 | 29.46571 | -94.82002 | 13980 ft | 285 kts | 286° |
| 2026-05-06 20:56 | 29.47342 | -94.84099 | 13648 ft | 285 kts | 286° |
| 2026-05-06 20:57 | 29.47852 | -94.85487 | 13408 ft | 285 kts | 286° |
| 2026-05-06 20:57 | 29.48619 | -94.87574 | 13070 ft | 283 kts | 286° |
| 2026-05-06 20:57 | 29.49371 | -94.89653 | 12750 ft | 282 kts | 286° |
| 2026-05-06 20:57 | 29.50122 | -94.91729 | 12391 ft | 281 kts | 286° |
| 2026-05-06 20:58 | 29.50869 | -94.93793 | 12068 ft | 279 kts | 286° |
| 2026-05-06 20:58 | 29.51611 | -94.95846 | 11739 ft | 278 kts | 286° |
| 2026-05-06 20:58 | 29.52340 | -94.97865 | 11426 ft | 277 kts | 287° |
| 2026-05-06 20:58 | 29.53077 | -94.99903 | 11102 ft | 276 kts | 287° |
| 2026-05-06 20:59 | 29.53811 | -95.01935 | 10831 ft | 274 kts | 287° |
| 2026-05-06 20:59 | 29.54539 | -95.03955 | 10621 ft | 273 kts | 287° |
| 2026-05-06 20:59 | 29.55266 | -95.05972 | 10376 ft | 274 kts | 287° |
| 2026-05-06 20:59 | 29.55994 | -95.07992 | 10292 ft | 273 kts | 287° |
| 2026-05-06 21:00 | 29.56717 | -95.09999 | 10233 ft | 272 kts | 288° |
| 2026-05-06 21:00 | 29.57440 | -95.12007 | 10097 ft | 271 kts | 288° |
| 2026-05-06 21:00 | 29.58146 | -95.14007 | 9786 ft | 270 kts | 284° |
| 2026-05-06 21:00 | 29.58567 | -95.16090 | 9447 ft | 266 kts | 277° |
| 2026-05-06 21:01 | 29.58921 | -95.18158 | 9107 ft | 265 kts | 278° |
| 2026-05-06 21:01 | 29.59282 | -95.20230 | 8776 ft | 264 kts | 278° |
| 2026-05-06 21:01 | 29.59644 | -95.22294 | 8464 ft | 263 kts | 278° |
| 2026-05-06 21:01 | 29.60005 | -95.24345 | 8153 ft | 261 kts | 279° |
| 2026-05-06 21:02 | 29.60364 | -95.26377 | 7948 ft | 255 kts | 278° |
| 2026-05-06 21:02 | 29.60709 | -95.28337 | 7824 ft | 246 kts | 278° |
| 2026-05-06 21:02 | 29.61049 | -95.30219 | 7715 ft | 236 kts | 280° |
| 2026-05-06 21:02 | 29.61423 | -95.32021 | 7584 ft | 228 kts | 280° |
| 2026-05-06 21:03 | 29.61787 | -95.33789 | 7279 ft | 227 kts | 280° |
| 2026-05-06 21:03 | 29.62151 | -95.35558 | 6952 ft | 228 kts | 280° |
| 2026-05-06 21:03 | 29.62514 | -95.37333 | 6706 ft | 228 kts | 281° |
| 2026-05-06 21:03 | 29.63144 | -95.38996 | 6514 ft | 230 kts | 306° |
| 2026-05-06 21:04 | 29.64249 | -95.40317 | 6336 ft | 229 kts | 309° |
| 2026-05-06 21:04 | 29.65347 | -95.41668 | 6045 ft | 232 kts | 310° |
| 2026-05-06 21:04 | 29.66449 | -95.43019 | 5789 ft | 231 kts | 309° |
| 2026-05-06 21:04 | 29.67541 | -95.44373 | 5483 ft | 229 kts | 308° |
| 2026-05-06 21:05 | 29.68622 | -95.45714 | 5178 ft | 229 kts | 309° |
| 2026-05-06 21:05 | 29.69708 | -95.47057 | 4875 ft | 228 kts | 308° |
| 2026-05-06 21:05 | 29.70782 | -95.48388 | 4567 ft | 227 kts | 308° |
| 2026-05-06 21:05 | 29.71856 | -95.49718 | 4265 ft | 225 kts | 309° |
| 2026-05-06 21:06 | 29.72918 | -95.51033 | 3943 ft | 226 kts | 309° |
| 2026-05-06 21:06 | 29.73995 | -95.52366 | 3630 ft | 227 kts | 309° |
| 2026-05-06 21:06 | 29.75066 | -95.53690 | 3371 ft | 225 kts | 310° |
| 2026-05-06 21:06 | 29.76343 | -95.54703 | 3167 ft | 221 kts | 340° |
| 2026-05-06 21:07 | 29.77816 | -95.54750 | 3039 ft | 211 kts | 15° |
| 2026-05-06 21:07 | 29.79038 | -95.53919 | 2926 ft | 202 kts | 41° |
| 2026-05-06 21:07 | 29.80067 | -95.52821 | 2570 ft | 205 kts | 51° |
| 2026-05-06 21:07 | 29.80597 | -95.51327 | 2219 ft | 199 kts | 90° |
| 2026-05-06 21:08 | 29.80357 | -95.49823 | 2047 ft | 193 kts | 112° |
| 2026-05-06 21:08 | 29.79940 | -95.48337 | 2042 ft | 196 kts | 112° |
| 2026-05-06 21:08 | 29.79523 | -95.46845 | 2029 ft | 195 kts | 113° |
| 2026-05-06 21:08 | 29.78942 | -95.45453 | 1999 ft | 192 kts | 127° |
| 2026-05-06 21:09 | 29.78151 | -95.44238 | 1996 ft | 189 kts | 135° |
| 2026-05-06 21:09 | 29.77271 | -95.43118 | 1993 ft | 189 kts | 137° |
| 2026-05-06 21:09 | 29.76366 | -95.42017 | 1975 ft | 190 kts | 137° |
| 2026-05-06 21:09 | 29.75447 | -95.40910 | 1997 ft | 192 kts | 137° |
| 2026-05-06 21:10 | 29.74507 | -95.39784 | 1992 ft | 192 kts | 137° |
| 2026-05-06 21:10 | 29.73599 | -95.38696 | 1972 ft | 190 kts | 139° |
| 2026-05-06 21:10 | 29.72690 | -95.37611 | 2020 ft | 187 kts | 138° |
| 2026-05-06 21:10 | 29.71786 | -95.36532 | 2007 ft | 188 kts | 138° |
| 2026-05-06 21:11 | 29.70881 | -95.35452 | 1966 ft | 186 kts | 138° |
| 2026-05-06 21:11 | 29.69975 | -95.34374 | 1873 ft | 191 kts | 137° |
| 2026-05-06 21:11 | 29.69024 | -95.33257 | 1331 ft | 199 kts | 139° |
| 2026-05-06 21:11 | 29.68089 | -95.32143 | 1021 ft | 188 kts | 137° |
| 2026-05-06 21:12 | 29.67244 | -95.31076 | 823 ft | 173 kts | 137° |
| 2026-05-06 21:12 | 29.66427 | -95.30146 | 498 ft | 158 kts | 137° |
| 2026-05-06 21:12 | 29.65689 | -95.29310 | 322 ft | 145 kts | 134° |
| 2026-05-06 21:12 | 29.65005 | -95.28451 | 120 ft | 146 kts | 136° |
| 2026-05-06 21:13 | 29.64349 | -95.27652 | 54 ft | 120 kts | 139° |
| 2026-05-06 21:13 | 29.64048 | -95.27315 | 54 ft | 8 kts | 133° |
| 2026-05-06 21:13 | 29.64004 | -95.27259 | 53 ft | 13 kts | 132° |
| 2026-05-06 21:13 | 29.63935 | -95.27139 | 50 ft | 19 kts | 110° |
| 2026-05-06 21:14 | 29.63920 | -95.27024 | 54 ft | 14 kts | 91° |
| 2026-05-06 21:14 | 29.63923 | -95.26911 | 54 ft | 12 kts | 82° |
| 2026-05-06 21:14 | 29.63988 | -95.26864 | 51 ft | 13 kts | 1° |
| 2026-05-06 21:14 | 29.64085 | -95.26862 | 51 ft | 15 kts | 1° |
| 2026-05-06 21:15 | 29.64180 | -95.26909 | 51 ft | 17 kts | 310° |
| 2026-05-06 21:15 | 29.64258 | -95.27015 | 54 ft | 18 kts | 310° |
| 2026-05-06 21:15 | 29.64346 | -95.27133 | 49 ft | 20 kts | 310° |
| 2026-05-06 21:15 | 29.64423 | -95.27278 | 52 ft | 22 kts | 309° |
| 2026-05-06 21:16 | 29.64532 | -95.27410 | 52 ft | 22 kts | 314° |
| 2026-05-06 21:16 | 29.64638 | -95.27506 | 51 ft | 16 kts | 344° |
| 2026-05-06 21:16 | 29.64742 | -95.27515 | 52 ft | 14 kts | 360° |
| 2026-05-06 21:16 | 29.64846 | -95.27518 | 51 ft | 17 kts | 359° |
| 2026-05-06 21:17 | 29.64978 | -95.27520 | 54 ft | 19 kts | 359° |
| 2026-05-06 21:17 | 29.65093 | -95.27511 | 54 ft | 13 kts | 27° |
| 2026-05-06 21:17 | 29.65148 | -95.27441 | 54 ft | 11 kts | 62° |
| 2026-05-06 21:17 | 29.65198 | -95.27358 | 54 ft | 14 kts | 45° |
| 2026-05-06 21:18 | 29.65262 | -95.27314 | 52 ft | 9 kts | 335° |
| 2026-05-06 21:18 | 29.65304 | -95.27360 | 54 ft | 8 kts | 311° |
| 2026-05-06 21:18 | 29.65332 | -95.27408 | 54 ft | 7 kts | 280° |
| 2026-05-06 21:18 | 29.65319 | -95.27449 | 52 ft | 5 kts | 238° |
| 2026-05-06 21:19 | 29.65310 | -95.27465 | 50 ft | 0 kts | 238° |